sensor_id;sensor_type;location;lat;lon;timestamp;pressure;altitude;pressure_sealevel;temperature;humidity
72118;BME280;59992;47.490;8.736;2023-12-14T00:00:06;95644.19;;;6.15;96.75
72118;BME280;59992;47.490;8.736;2023-12-14T00:02:55;95645.06;;;6.08;96.44
72118;BME280;59992;47.490;8.736;2023-12-14T00:05:43;95650.29;;;6.06;97.66
72118;BME280;59992;47.490;8.736;2023-12-14T00:08:31;95647.95;;;6.05;98.21
72118;BME280;59992;47.490;8.736;2023-12-14T00:11:20;95651.17;;;6.05;99.07
72118;BME280;59992;47.490;8.736;2023-12-14T00:14:09;95655.64;;;6.07;98.26
72118;BME280;59992;47.490;8.736;2023-12-14T00:16:57;95654.61;;;5.99;98.15
72118;BME280;59992;47.490;8.736;2023-12-14T00:19:46;95655.37;;;5.95;98.50
72118;BME280;59992;47.490;8.736;2023-12-14T00:22:35;95660.01;;;5.97;99.73
72118;BME280;59992;47.490;8.736;2023-12-14T00:25:23;95662.13;;;5.99;99.24
72118;BME280;59992;47.490;8.736;2023-12-14T00:28:11;95666.04;;;5.99;98.94
72118;BME280;59992;47.490;8.736;2023-12-14T00:31:00;95668.36;;;5.99;98.89
72118;BME280;59992;47.490;8.736;2023-12-14T00:33:48;95667.78;;;6.00;98.40
72118;BME280;59992;47.490;8.736;2023-12-14T00:36:36;95671.97;;;5.99;98.70
72118;BME280;59992;47.490;8.736;2023-12-14T00:39:24;95677.67;;;5.98;98.46
72118;BME280;59992;47.490;8.736;2023-12-14T00:42:13;95678.94;;;5.98;99.12
72118;BME280;59992;47.490;8.736;2023-12-14T00:45:01;95683.16;;;5.98;99.18
72118;BME280;59992;47.490;8.736;2023-12-14T00:47:49;95688.89;;;6.00;99.99
72118;BME280;59992;47.490;8.736;2023-12-14T00:50:37;95693.96;;;6.02;100.00
72118;BME280;59992;47.490;8.736;2023-12-14T00:53:25;95696.61;;;6.03;99.81
72118;BME280;59992;47.490;8.736;2023-12-14T00:56:14;95695.89;;;5.99;99.19
72118;BME280;59992;47.490;8.736;2023-12-14T00:59:02;95696.21;;;6.02;99.42
72118;BME280;59992;47.490;8.736;2023-12-14T01:01:50;95701.73;;;6.03;98.95
72118;BME280;59992;47.490;8.736;2023-12-14T01:04:38;95704.43;;;6.03;99.33
72118;BME280;59992;47.490;8.736;2023-12-14T01:07:26;95702.84;;;5.98;99.18
72118;BME280;59992;47.490;8.736;2023-12-14T01:10:15;95714.02;;;6.01;99.68
72118;BME280;59992;47.490;8.736;2023-12-14T01:13:03;95718.83;;;6.01;99.76
72118;BME280;59992;47.490;8.736;2023-12-14T01:15:51;95720.23;;;6.04;99.94
72118;BME280;59992;47.490;8.736;2023-12-14T01:18:40;95729.29;;;6.07;99.92
72118;BME280;59992;47.490;8.736;2023-12-14T01:21:28;95731.56;;;6.07;99.96
72118;BME280;59992;47.490;8.736;2023-12-14T01:24:17;95736.83;;;6.08;99.70
72118;BME280;59992;47.490;8.736;2023-12-14T01:27:05;95743.56;;;6.07;99.53
72118;BME280;59992;47.490;8.736;2023-12-14T01:29:54;95747.13;;;6.04;99.69
72118;BME280;59992;47.490;8.736;2023-12-14T01:32:42;95751.96;;;6.05;100.00
72118;BME280;59992;47.490;8.736;2023-12-14T01:35:30;95750.60;;;6.04;100.00
72118;BME280;59992;47.490;8.736;2023-12-14T01:38:19;95755.27;;;6.06;100.00
72118;BME280;59992;47.490;8.736;2023-12-14T01:41:07;95759.46;;;6.04;99.99
72118;BME280;59992;47.490;8.736;2023-12-14T01:43:55;95766.95;;;6.02;99.97
72118;BME280;59992;47.490;8.736;2023-12-14T01:46:44;95767.61;;;6.01;99.94
72118;BME280;59992;47.490;8.736;2023-12-14T01:49:32;95767.84;;;6.01;99.72
72118;BME280;59992;47.490;8.736;2023-12-14T01:52:20;95771.14;;;6.01;99.98
72118;BME280;59992;47.490;8.736;2023-12-14T01:55:08;95774.49;;;6.00;100.00
72118;BME280;59992;47.490;8.736;2023-12-14T01:57:56;95780.83;;;5.97;99.95
72118;BME280;59992;47.490;8.736;2023-12-14T02:00:51;95787.98;;;5.93;99.81
72118;BME280;59992;47.490;8.736;2023-12-14T02:03:45;95787.14;;;5.92;100.00
72118;BME280;59992;47.490;8.736;2023-12-14T02:06:34;95789.04;;;5.94;99.92
72118;BME280;59992;47.490;8.736;2023-12-14T02:09:22;95794.15;;;5.94;100.00
72118;BME280;59992;47.490;8.736;2023-12-14T02:12:10;95801.23;;;5.91;99.96
72118;BME280;59992;47.490;8.736;2023-12-14T02:14:59;95806.41;;;5.89;99.89
72118;BME280;59992;47.490;8.736;2023-12-14T02:17:48;95804.05;;;5.89;100.00
72118;BME280;59992;47.490;8.736;2023-12-14T02:20:36;95810.77;;;5.91;99.83
72118;BME280;59992;47.490;8.736;2023-12-14T02:23:25;95814.36;;;5.90;99.59
72118;BME280;59992;47.490;8.736;2023-12-14T02:26:13;95817.05;;;5.88;99.71
72118;BME280;59992;47.490;8.736;2023-12-14T02:29:02;95827.82;;;5.90;100.00
72118;BME280;59992;47.490;8.736;2023-12-14T02:31:51;95828.33;;;5.89;99.96
72118;BME280;59992;47.490;8.736;2023-12-14T02:34:39;95835.31;;;5.92;99.94
72118;BME280;59992;47.490;8.736;2023-12-14T02:37:27;95836.73;;;5.92;99.99
72118;BME280;59992;47.490;8.736;2023-12-14T02:40:16;95837.62;;;5.92;100.00
72118;BME280;59992;47.490;8.736;2023-12-14T02:43:04;95831.45;;;5.88;100.00
72118;BME280;59992;47.490;8.736;2023-12-14T02:45:53;95840.87;;;5.93;100.00
72118;BME280;59992;47.490;8.736;2023-12-14T02:48:42;95846.50;;;5.92;100.00
72118;BME280;59992;47.490;8.736;2023-12-14T02:51:31;95847.31;;;5.91;100.00
72118;BME280;59992;47.490;8.736;2023-12-14T02:54:19;95852.38;;;5.89;99.99
72118;BME280;59992;47.490;8.736;2023-12-14T02:57:07;95856.60;;;5.89;100.00
72118;BME280;59992;47.490;8.736;2023-12-14T02:59:55;95857.29;;;5.90;99.98
72118;BME280;59992;47.490;8.736;2023-12-14T03:02:44;95856.00;;;5.90;100.00
72118;BME280;59992;47.490;8.736;2023-12-14T03:05:32;95856.09;;;5.84;100.00
72118;BME280;59992;47.490;8.736;2023-12-14T03:08:20;95858.61;;;5.83;99.84
72118;BME280;59992;47.490;8.736;2023-12-14T03:11:09;95858.30;;;5.84;99.84
72118;BME280;59992;47.490;8.736;2023-12-14T03:13:57;95863.38;;;5.81;99.82
72118;BME280;59992;47.490;8.736;2023-12-14T03:16:46;95864.92;;;5.80;99.94
72118;BME280;59992;47.490;8.736;2023-12-14T03:19:36;95866.16;;;5.77;100.00
72118;BME280;59992;47.490;8.736;2023-12-14T03:22:24;95868.77;;;5.76;100.00
72118;BME280;59992;47.490;8.736;2023-12-14T03:25:13;95874.70;;;5.76;99.97
72118;BME280;59992;47.490;8.736;2023-12-14T03:28:02;95880.70;;;5.72;100.00
72118;BME280;59992;47.490;8.736;2023-12-14T03:30:50;95887.13;;;5.73;100.00
72118;BME280;59992;47.490;8.736;2023-12-14T03:33:39;95890.10;;;5.72;100.00
72118;BME280;59992;47.490;8.736;2023-12-14T03:36:27;95894.44;;;5.71;100.00
72118;BME280;59992;47.490;8.736;2023-12-14T03:39:16;95901.67;;;5.73;100.00
72118;BME280;59992;47.490;8.736;2023-12-14T03:42:04;95903.64;;;5.73;100.00
72118;BME280;59992;47.490;8.736;2023-12-14T03:44:53;95905.31;;;5.74;100.00
72118;BME280;59992;47.490;8.736;2023-12-14T03:47:41;95909.32;;;5.75;100.00
72118;BME280;59992;47.490;8.736;2023-12-14T03:50:29;95914.00;;;5.76;100.00
72118;BME280;59992;47.490;8.736;2023-12-14T03:53:17;95916.66;;;5.77;100.00
72118;BME280;59992;47.490;8.736;2023-12-14T03:56:06;95916.67;;;5.78;100.00
72118;BME280;59992;47.490;8.736;2023-12-14T03:58:54;95923.65;;;5.81;100.00
72118;BME280;59992;47.490;8.736;2023-12-14T04:01:44;95931.69;;;5.81;100.00
72118;BME280;59992;47.490;8.736;2023-12-14T04:04:33;95933.98;;;5.83;100.00
72118;BME280;59992;47.490;8.736;2023-12-14T04:07:21;95933.49;;;5.82;100.00
72118;BME280;59992;47.490;8.736;2023-12-14T04:10:11;95941.19;;;5.85;100.00
72118;BME280;59992;47.490;8.736;2023-12-14T04:13:01;95946.02;;;5.87;100.00
72118;BME280;59992;47.490;8.736;2023-12-14T04:15:49;95946.46;;;5.86;99.76
72118;BME280;59992;47.490;8.736;2023-12-14T04:18:38;95950.20;;;5.85;100.00
72118;BME280;59992;47.490;8.736;2023-12-14T04:21:27;95956.98;;;5.86;100.00
72118;BME280;59992;47.490;8.736;2023-12-14T04:24:16;95962.81;;;5.85;99.91
72118;BME280;59992;47.490;8.736;2023-12-14T04:27:05;95968.87;;;5.86;100.00
72118;BME280;59992;47.490;8.736;2023-12-14T04:29:53;95975.04;;;5.86;99.99
72118;BME280;59992;47.490;8.736;2023-12-14T04:32:41;95976.83;;;5.86;100.00
72118;BME280;59992;47.490;8.736;2023-12-14T04:35:29;95986.59;;;5.86;100.00
72118;BME280;59992;47.490;8.736;2023-12-14T04:38:19;95985.48;;;5.87;100.00
72118;BME280;59992;47.490;8.736;2023-12-14T04:41:07;95989.02;;;5.87;100.00
72118;BME280;59992;47.490;8.736;2023-12-14T04:43:55;95996.73;;;5.83;100.00
72118;BME280;59992;47.490;8.736;2023-12-14T04:46:44;96001.69;;;5.86;100.00
72118;BME280;59992;47.490;8.736;2023-12-14T04:49:32;96006.02;;;5.85;100.00
72118;BME280;59992;47.490;8.736;2023-12-14T04:52:21;96011.58;;;5.85;100.00
72118;BME280;59992;47.490;8.736;2023-12-14T04:55:09;96019.44;;;5.86;100.00
72118;BME280;59992;47.490;8.736;2023-12-14T04:57:57;96027.83;;;5.88;100.00
72118;BME280;59992;47.490;8.736;2023-12-14T05:00:45;96021.56;;;5.84;100.00
72118;BME280;59992;47.490;8.736;2023-12-14T05:03:34;96029.02;;;5.91;100.00
72118;BME280;59992;47.490;8.736;2023-12-14T05:06:22;96036.67;;;5.91;99.90
72118;BME280;59992;47.490;8.736;2023-12-14T05:09:10;96044.66;;;5.92;99.96
72118;BME280;59992;47.490;8.736;2023-12-14T05:11:59;96048.80;;;5.92;99.87
72118;BME280;59992;47.490;8.736;2023-12-14T05:14:47;96054.31;;;5.90;99.71
72118;BME280;59992;47.490;8.736;2023-12-14T05:17:35;96061.15;;;5.93;100.00
72118;BME280;59992;47.490;8.736;2023-12-14T05:20:24;96062.46;;;5.94;100.00
72118;BME280;59992;47.490;8.736;2023-12-14T05:23:12;96068.38;;;5.94;100.00
72118;BME280;59992;47.490;8.736;2023-12-14T05:26:01;96078.67;;;5.93;99.99
72118;BME280;59992;47.490;8.736;2023-12-14T05:28:49;96078.20;;;5.96;100.00
72118;BME280;59992;47.490;8.736;2023-12-14T05:31:38;96078.15;;;5.97;99.93
72118;BME280;59992;47.490;8.736;2023-12-14T05:34:26;96084.35;;;5.92;99.94
72118;BME280;59992;47.490;8.736;2023-12-14T05:37:14;96085.02;;;5.92;100.00
72118;BME280;59992;47.490;8.736;2023-12-14T05:40:03;96082.98;;;5.92;100.00
72118;BME280;59992;47.490;8.736;2023-12-14T05:42:52;96086.91;;;5.93;99.93
72118;BME280;59992;47.490;8.736;2023-12-14T05:45:40;96096.58;;;5.91;99.96
72118;BME280;59992;47.490;8.736;2023-12-14T05:48:29;96104.45;;;5.90;99.96
72118;BME280;59992;47.490;8.736;2023-12-14T05:51:27;96107.06;;;5.90;99.89
72118;BME280;59992;47.490;8.736;2023-12-14T05:54:16;96114.17;;;5.88;99.99
72118;BME280;59992;47.490;8.736;2023-12-14T05:57:05;96119.17;;;5.87;100.00
72118;BME280;59992;47.490;8.736;2023-12-14T05:59:53;96124.69;;;5.85;99.87
72118;BME280;59992;47.490;8.736;2023-12-14T06:02:42;96131.42;;;5.84;100.00
72118;BME280;59992;47.490;8.736;2023-12-14T06:05:30;96133.44;;;5.84;100.00
72118;BME280;59992;47.490;8.736;2023-12-14T06:08:18;96141.18;;;5.84;100.00
72118;BME280;59992;47.490;8.736;2023-12-14T06:11:06;96143.86;;;5.81;100.00
72118;BME280;59992;47.490;8.736;2023-12-14T06:13:55;96150.48;;;5.80;100.00
72118;BME280;59992;47.490;8.736;2023-12-14T06:16:43;96157.28;;;5.79;100.00
72118;BME280;59992;47.490;8.736;2023-12-14T06:19:31;96164.50;;;5.80;100.00
72118;BME280;59992;47.490;8.736;2023-12-14T06:22:20;96174.18;;;5.79;100.00
72118;BME280;59992;47.490;8.736;2023-12-14T06:25:09;96177.33;;;5.79;100.00
72118;BME280;59992;47.490;8.736;2023-12-14T06:27:57;96187.54;;;5.78;100.00
72118;BME280;59992;47.490;8.736;2023-12-14T06:30:45;96190.27;;;5.74;100.00
72118;BME280;59992;47.490;8.736;2023-12-14T06:33:33;96191.27;;;5.69;100.00
72118;BME280;59992;47.490;8.736;2023-12-14T06:36:22;96199.04;;;5.66;100.00
72118;BME280;59992;47.490;8.736;2023-12-14T06:39:14;96204.52;;;5.67;100.00
72118;BME280;59992;47.490;8.736;2023-12-14T06:42:04;96209.41;;;5.67;100.00
72118;BME280;59992;47.490;8.736;2023-12-14T06:44:53;96211.26;;;5.66;100.00
72118;BME280;59992;47.490;8.736;2023-12-14T06:47:42;96218.40;;;5.69;100.00
72118;BME280;59992;47.490;8.736;2023-12-14T06:50:31;96223.44;;;5.69;100.00
72118;BME280;59992;47.490;8.736;2023-12-14T06:53:19;96226.29;;;5.72;100.00
72118;BME280;59992;47.490;8.736;2023-12-14T06:56:09;96231.92;;;5.75;100.00
72118;BME280;59992;47.490;8.736;2023-12-14T06:58:58;96232.86;;;5.76;100.00
72118;BME280;59992;47.490;8.736;2023-12-14T07:01:46;96234.25;;;5.77;100.00
72118;BME280;59992;47.490;8.736;2023-12-14T07:04:34;96238.57;;;5.78;100.00
72118;BME280;59992;47.490;8.736;2023-12-14T07:07:23;96242.55;;;5.72;100.00
72118;BME280;59992;47.490;8.736;2023-12-14T07:10:11;96252.66;;;5.81;100.00
72118;BME280;59992;47.490;8.736;2023-12-14T07:13:00;96260.56;;;5.78;100.00
72118;BME280;59992;47.490;8.736;2023-12-14T07:15:48;96262.09;;;5.79;100.00
72118;BME280;59992;47.490;8.736;2023-12-14T07:18:37;96262.46;;;5.84;100.00
72118;BME280;59992;47.490;8.736;2023-12-14T07:21:26;96267.64;;;5.83;100.00
72118;BME280;59992;47.490;8.736;2023-12-14T07:24:14;96274.15;;;5.87;100.00
72118;BME280;59992;47.490;8.736;2023-12-14T07:27:03;96274.59;;;5.90;100.00
72118;BME280;59992;47.490;8.736;2023-12-14T07:29:52;96279.09;;;5.93;100.00
72118;BME280;59992;47.490;8.736;2023-12-14T07:32:40;96284.98;;;5.94;100.00
72118;BME280;59992;47.490;8.736;2023-12-14T07:35:29;96291.34;;;5.98;100.00
72118;BME280;59992;47.490;8.736;2023-12-14T07:38:17;96296.24;;;5.96;100.00
72118;BME280;59992;47.490;8.736;2023-12-14T07:41:06;96300.20;;;6.01;100.00
72118;BME280;59992;47.490;8.736;2023-12-14T07:43:54;96306.07;;;6.04;100.00
72118;BME280;59992;47.490;8.736;2023-12-14T07:46:42;96308.20;;;6.02;100.00
72118;BME280;59992;47.490;8.736;2023-12-14T07:49:30;96318.67;;;6.09;100.00
72118;BME280;59992;47.490;8.736;2023-12-14T07:52:19;96322.01;;;6.12;100.00
72118;BME280;59992;47.490;8.736;2023-12-14T07:55:08;96319.82;;;6.09;100.00
72118;BME280;59992;47.490;8.736;2023-12-14T07:57:57;96330.38;;;6.13;100.00
72118;BME280;59992;47.490;8.736;2023-12-14T08:00:45;96334.75;;;6.17;100.00
72118;BME280;59992;47.490;8.736;2023-12-14T08:03:33;96345.46;;;6.18;99.93
72118;BME280;59992;47.490;8.736;2023-12-14T08:06:21;96351.80;;;6.22;100.00
72118;BME280;59992;47.490;8.736;2023-12-14T08:09:09;96355.80;;;6.25;100.00
72118;BME280;59992;47.490;8.736;2023-12-14T08:11:58;96360.27;;;6.29;100.00
72118;BME280;59992;47.490;8.736;2023-12-14T08:14:46;96364.33;;;6.32;100.00
72118;BME280;59992;47.490;8.736;2023-12-14T08:17:35;96368.77;;;6.32;99.92
72118;BME280;59992;47.490;8.736;2023-12-14T08:20:23;96370.85;;;6.35;99.47
72118;BME280;59992;47.490;8.736;2023-12-14T08:23:11;96374.30;;;6.37;99.56
72118;BME280;59992;47.490;8.736;2023-12-14T08:25:59;96379.91;;;6.38;99.52
72118;BME280;59992;47.490;8.736;2023-12-14T08:28:47;96384.73;;;6.45;100.00
72118;BME280;59992;47.490;8.736;2023-12-14T08:31:35;96389.68;;;6.50;99.77
72118;BME280;59992;47.490;8.736;2023-12-14T08:34:24;96394.27;;;6.53;99.71
72118;BME280;59992;47.490;8.736;2023-12-14T08:37:13;96401.13;;;6.56;98.92
72118;BME280;59992;47.490;8.736;2023-12-14T08:40:02;96408.65;;;6.59;98.29
72118;BME280;59992;47.490;8.736;2023-12-14T08:42:51;96413.92;;;6.62;98.55
72118;BME280;59992;47.490;8.736;2023-12-14T08:45:39;96419.77;;;6.67;98.65
72118;BME280;59992;47.490;8.736;2023-12-14T08:48:27;96423.82;;;6.70;98.28
72118;BME280;59992;47.490;8.736;2023-12-14T08:51:15;96426.89;;;6.72;97.65
72118;BME280;59992;47.490;8.736;2023-12-14T08:54:05;96434.89;;;6.76;97.22
72118;BME280;59992;47.490;8.736;2023-12-14T08:56:53;96442.21;;;6.82;97.85
72118;BME280;59992;47.490;8.736;2023-12-14T08:59:42;96442.21;;;6.86;97.71
72118;BME280;59992;47.490;8.736;2023-12-14T09:02:30;96450.89;;;6.89;97.23
72118;BME280;59992;47.490;8.736;2023-12-14T09:05:18;96458.02;;;6.92;96.92
72118;BME280;59992;47.490;8.736;2023-12-14T09:08:08;96459.99;;;6.92;96.69
72118;BME280;59992;47.490;8.736;2023-12-14T09:10:56;96468.83;;;6.96;96.46
72118;BME280;59992;47.490;8.736;2023-12-14T09:13:46;96475.62;;;6.99;96.63
72118;BME280;59992;47.490;8.736;2023-12-14T09:16:34;96486.40;;;7.00;95.60
72118;BME280;59992;47.490;8.736;2023-12-14T09:19:23;96491.42;;;7.02;95.42
72118;BME280;59992;47.490;8.736;2023-12-14T09:22:11;96499.05;;;7.00;95.21
72118;BME280;59992;47.490;8.736;2023-12-14T09:24:59;96502.94;;;6.99;94.92
72118;BME280;59992;47.490;8.736;2023-12-14T09:27:47;96509.10;;;6.98;94.75
72118;BME280;59992;47.490;8.736;2023-12-14T09:30:36;96514.84;;;6.96;94.88
72118;BME280;59992;47.490;8.736;2023-12-14T09:33:24;96522.73;;;6.95;94.53
72118;BME280;59992;47.490;8.736;2023-12-14T09:36:12;96525.70;;;6.92;94.16
72118;BME280;59992;47.490;8.736;2023-12-14T09:39:01;96530.31;;;6.90;94.06
72118;BME280;59992;47.490;8.736;2023-12-14T09:41:50;96536.77;;;6.86;94.65
72118;BME280;59992;47.490;8.736;2023-12-14T09:44:39;96543.67;;;6.91;94.64
72118;BME280;59992;47.490;8.736;2023-12-14T09:47:27;96546.90;;;6.90;94.10
72118;BME280;59992;47.490;8.736;2023-12-14T09:50:16;96546.25;;;6.92;94.58
72118;BME280;59992;47.490;8.736;2023-12-14T09:53:04;96550.61;;;6.91;94.61
72118;BME280;59992;47.490;8.736;2023-12-14T09:55:52;96550.17;;;6.91;94.42
72118;BME280;59992;47.490;8.736;2023-12-14T09:58:42;96554.34;;;6.93;94.49
72118;BME280;59992;47.490;8.736;2023-12-14T10:01:31;96557.77;;;6.91;94.34
72118;BME280;59992;47.490;8.736;2023-12-14T10:04:20;96563.20;;;6.92;95.07
72118;BME280;59992;47.490;8.736;2023-12-14T10:07:10;96562.84;;;6.92;94.74
72118;BME280;59992;47.490;8.736;2023-12-14T10:10:10;96567.27;;;6.92;95.08
72118;BME280;59992;47.490;8.736;2023-12-14T10:13:00;96568.52;;;6.91;94.34
72118;BME280;59992;47.490;8.736;2023-12-14T10:15:49;96567.55;;;6.94;94.11
72118;BME280;59992;47.490;8.736;2023-12-14T10:18:38;96570.31;;;6.96;94.13
72118;BME280;59992;47.490;8.736;2023-12-14T10:21:28;96573.23;;;6.95;94.50
72118;BME280;59992;47.490;8.736;2023-12-14T10:24:17;96579.21;;;7.02;94.13
72118;BME280;59992;47.490;8.736;2023-12-14T10:27:07;96574.58;;;7.03;94.87
72118;BME280;59992;47.490;8.736;2023-12-14T10:29:56;96578.08;;;7.10;94.54
72118;BME280;59992;47.490;8.736;2023-12-14T10:32:44;96576.85;;;7.15;94.10
72118;BME280;59992;47.490;8.736;2023-12-14T10:35:33;96575.73;;;7.18;93.57
72118;BME280;59992;47.490;8.736;2023-12-14T10:38:22;96579.89;;;7.19;93.27
72118;BME280;59992;47.490;8.736;2023-12-14T10:41:13;96583.14;;;7.19;93.14
72118;BME280;59992;47.490;8.736;2023-12-14T10:44:03;96589.14;;;7.25;93.80
72118;BME280;59992;47.490;8.736;2023-12-14T10:46:54;96585.36;;;7.26;92.69
72118;BME280;59992;47.490;8.736;2023-12-14T10:49:44;96588.80;;;7.29;92.39
72118;BME280;59992;47.490;8.736;2023-12-14T10:52:37;96589.15;;;7.33;92.54
72118;BME280;59992;47.490;8.736;2023-12-14T10:55:31;96596.02;;;7.34;93.32
72118;BME280;59992;47.490;8.736;2023-12-14T10:58:21;96601.22;;;7.40;92.91
72118;BME280;59992;47.490;8.736;2023-12-14T11:01:14;96606.42;;;7.40;92.38
72118;BME280;59992;47.490;8.736;2023-12-14T11:04:03;96611.92;;;7.37;91.70
72118;BME280;59992;47.490;8.736;2023-12-14T11:06:53;96623.59;;;7.40;91.66
72118;BME280;59992;47.490;8.736;2023-12-14T11:09:44;96624.98;;;7.38;91.43
72118;BME280;59992;47.490;8.736;2023-12-14T11:12:34;96631.48;;;7.37;91.86
72118;BME280;59992;47.490;8.736;2023-12-14T11:15:23;96636.17;;;7.37;92.20
72118;BME280;59992;47.490;8.736;2023-12-14T11:18:27;96639.88;;;7.35;91.66
72118;BME280;59992;47.490;8.736;2023-12-14T11:21:19;96644.79;;;7.35;91.96
72118;BME280;59992;47.490;8.736;2023-12-14T11:24:08;96646.58;;;7.35;91.54
72118;BME280;59992;47.490;8.736;2023-12-14T11:26:56;96644.41;;;7.32;91.36
72118;BME280;59992;47.490;8.736;2023-12-14T11:29:44;96647.40;;;7.31;92.13
72118;BME280;59992;47.490;8.736;2023-12-14T11:32:32;96649.80;;;7.31;91.60
72118;BME280;59992;47.490;8.736;2023-12-14T11:35:21;96649.34;;;7.30;91.13
72118;BME280;59992;47.490;8.736;2023-12-14T11:38:10;96651.98;;;7.28;91.52
72118;BME280;59992;47.490;8.736;2023-12-14T11:41:01;96656.98;;;7.24;91.80
72118;BME280;59992;47.490;8.736;2023-12-14T11:43:49;96659.67;;;7.17;91.42
72118;BME280;59992;47.490;8.736;2023-12-14T11:46:37;96660.84;;;7.18;92.11
72118;BME280;59992;47.490;8.736;2023-12-14T11:49:28;96667.98;;;7.15;92.72
72118;BME280;59992;47.490;8.736;2023-12-14T11:52:18;96669.42;;;7.13;93.42
72118;BME280;59992;47.490;8.736;2023-12-14T11:55:07;96672.11;;;7.15;92.85
72118;BME280;59992;47.490;8.736;2023-12-14T11:58:01;96669.70;;;7.10;93.42
72118;BME280;59992;47.490;8.736;2023-12-14T12:00:51;96670.98;;;7.13;92.84
72118;BME280;59992;47.490;8.736;2023-12-14T12:03:39;96677.48;;;7.15;93.01
72118;BME280;59992;47.490;8.736;2023-12-14T12:06:27;96675.44;;;7.13;92.60
72118;BME280;59992;47.490;8.736;2023-12-14T12:09:36;96683.98;;;7.16;93.17
72118;BME280;59992;47.490;8.736;2023-12-14T12:12:25;96680.91;;;7.09;93.78
72118;BME280;59992;47.490;8.736;2023-12-14T12:15:13;96683.25;;;7.12;92.86
72118;BME280;59992;47.490;8.736;2023-12-14T12:18:03;96685.58;;;7.14;93.01
72118;BME280;59992;47.490;8.736;2023-12-14T12:20:51;96686.06;;;7.15;93.25
72118;BME280;59992;47.490;8.736;2023-12-14T12:23:40;96690.38;;;7.16;93.59
72118;BME280;59992;47.490;8.736;2023-12-14T12:26:29;96687.38;;;7.20;93.80
72118;BME280;59992;47.490;8.736;2023-12-14T12:29:17;96692.16;;;7.24;93.32
72118;BME280;59992;47.490;8.736;2023-12-14T12:32:05;96693.02;;;7.22;93.15
72118;BME280;59992;47.490;8.736;2023-12-14T12:34:54;96698.53;;;7.25;92.93
72118;BME280;59992;47.490;8.736;2023-12-14T12:37:43;96699.73;;;7.27;92.92
72118;BME280;59992;47.490;8.736;2023-12-14T12:40:31;96701.77;;;7.26;92.43
72118;BME280;59992;47.490;8.736;2023-12-14T12:43:21;96699.71;;;7.27;92.51
72118;BME280;59992;47.490;8.736;2023-12-14T12:46:09;96701.65;;;7.21;92.24
72118;BME280;59992;47.490;8.736;2023-12-14T12:48:57;96702.65;;;7.19;91.76
72118;BME280;59992;47.490;8.736;2023-12-14T12:51:45;96699.19;;;7.19;92.08
72118;BME280;59992;47.490;8.736;2023-12-14T12:54:35;96702.56;;;7.21;92.26
72118;BME280;59992;47.490;8.736;2023-12-14T12:57:23;96703.61;;;7.24;92.37
72118;BME280;59992;47.490;8.736;2023-12-14T13:00:13;96710.34;;;7.27;92.44
72118;BME280;59992;47.490;8.736;2023-12-14T13:03:02;96711.24;;;7.27;92.64
72118;BME280;59992;47.490;8.736;2023-12-14T13:05:51;96714.62;;;7.32;92.23
72118;BME280;59992;47.490;8.736;2023-12-14T13:08:39;96712.73;;;7.35;92.04
72118;BME280;59992;47.490;8.736;2023-12-14T13:11:27;96711.43;;;7.37;92.43
72118;BME280;59992;47.490;8.736;2023-12-14T13:14:17;96713.70;;;7.43;91.97
72118;BME280;59992;47.490;8.736;2023-12-14T13:17:06;96714.59;;;7.40;92.00
72118;BME280;59992;47.490;8.736;2023-12-14T13:19:54;96720.71;;;7.43;91.54
72118;BME280;59992;47.490;8.736;2023-12-14T13:22:42;96725.86;;;7.41;91.82
72118;BME280;59992;47.490;8.736;2023-12-14T13:25:30;96726.56;;;7.42;91.56
72118;BME280;59992;47.490;8.736;2023-12-14T13:28:18;96736.06;;;7.39;91.35
72118;BME280;59992;47.490;8.736;2023-12-14T13:31:07;96744.05;;;7.37;92.21
72118;BME280;59992;47.490;8.736;2023-12-14T13:33:55;96744.38;;;7.37;92.09
72118;BME280;59992;47.490;8.736;2023-12-14T13:36:43;96746.77;;;7.37;91.41
72118;BME280;59992;47.490;8.736;2023-12-14T13:39:32;96749.00;;;7.36;92.12
72118;BME280;59992;47.490;8.736;2023-12-14T13:42:22;96758.53;;;7.40;91.94
72118;BME280;59992;47.490;8.736;2023-12-14T13:45:10;96756.34;;;7.40;92.08
72118;BME280;59992;47.490;8.736;2023-12-14T13:47:59;96761.61;;;7.42;92.00
72118;BME280;59992;47.490;8.736;2023-12-14T13:50:47;96768.39;;;7.42;92.03
72118;BME280;59992;47.490;8.736;2023-12-14T13:53:36;96772.53;;;7.42;91.96
72118;BME280;59992;47.490;8.736;2023-12-14T13:56:24;96778.33;;;7.45;92.42
72118;BME280;59992;47.490;8.736;2023-12-14T13:59:12;96778.48;;;7.39;92.22
72118;BME280;59992;47.490;8.736;2023-12-14T14:02:01;96782.80;;;7.40;92.13
72118;BME280;59992;47.490;8.736;2023-12-14T14:04:50;96784.68;;;7.38;92.28
72118;BME280;59992;47.490;8.736;2023-12-14T14:07:40;96787.52;;;7.37;92.05
72118;BME280;59992;47.490;8.736;2023-12-14T14:10:28;96794.98;;;7.34;91.01
72118;BME280;59992;47.490;8.736;2023-12-14T14:13:16;96801.58;;;7.33;91.40
72118;BME280;59992;47.490;8.736;2023-12-14T14:16:07;96811.12;;;7.27;92.18
72118;BME280;59992;47.490;8.736;2023-12-14T14:18:54;96818.50;;;7.27;92.07
72118;BME280;59992;47.490;8.736;2023-12-14T14:21:43;96824.02;;;7.27;91.97
72118;BME280;59992;47.490;8.736;2023-12-14T14:24:32;96829.94;;;7.28;92.55
72118;BME280;59992;47.490;8.736;2023-12-14T14:27:20;96831.91;;;7.29;92.49
72118;BME280;59992;47.490;8.736;2023-12-14T14:30:12;96836.33;;;7.31;92.61
72118;BME280;59992;47.490;8.736;2023-12-14T14:33:00;96839.48;;;7.31;92.36
72118;BME280;59992;47.490;8.736;2023-12-14T14:35:48;96842.63;;;7.30;92.35
72118;BME280;59992;47.490;8.736;2023-12-14T14:38:38;96840.61;;;7.28;92.68
72118;BME280;59992;47.490;8.736;2023-12-14T14:41:30;96854.70;;;7.33;91.96
72118;BME280;59992;47.490;8.736;2023-12-14T14:44:19;96856.05;;;7.36;92.89
72118;BME280;59992;47.490;8.736;2023-12-14T14:47:07;96864.91;;;7.37;92.56
72118;BME280;59992;47.490;8.736;2023-12-14T14:49:55;96868.63;;;7.33;92.55
72118;BME280;59992;47.490;8.736;2023-12-14T14:52:50;96876.19;;;7.31;92.10
72118;BME280;59992;47.490;8.736;2023-12-14T14:55:39;96883.84;;;7.35;92.55
72118;BME280;59992;47.490;8.736;2023-12-14T14:58:27;96878.45;;;7.29;92.35
72118;BME280;59992;47.490;8.736;2023-12-14T15:01:15;96888.38;;;7.36;92.82